Fairfax, IA (52228)

11:11 AM CDT on August 28, 2015 (GMT -0500)
Rockhurst Dr SW - Stoney Point | | Change Station
CLOSE
Current Station
Personal Weather Station
Location: Cedar Rapids, IA
Elevation: 830 ft
Nearby Weather Stations

Elev 830 ft 41.97 °N, 91.76 °W | Updated 49 seconds ago

Rain
Rain
63.3 °F
Feels Like 63.3 °F
N
0.0
Wind Variable Wind from SSW
Gusts 0.0 mph

Today
High -- | Low -- °F
--% Chance of Precip.
Yesterday
High -- | Low -- °F
Precip. -- in
6:28 AM 7:47 PM
Waxing Gibbous, 98% visible
Pressure 30.06 in
Visibility 8.0 miles
Clouds Mostly Cloudy 11000 ft
Dew Point 61 °F
Humidity 92%
Rainfall 0.00 in
Snow Depth Not available.
UV 1.0 out of 12
Pollen 2.70 out of 12
Air Quality Not available.
Flu Activity Not available.
METAR KCID 281552Z 13007KT 8SM -RA BKN110 17/17 A3006 RMK AO2 RAE17B47 PRESFR SLP178 P0001 T01720167
Pressure 30.06 in
Visibility 8.0 miles
Clouds Mostly Cloudy 11000 ft
Dew Point 61 °F
Humidity 92%
Rainfall 0.00 in
Snow Depth Not available.
UV 1.0 out of 12
Pollen 2.70 out of 12
Air Quality Not available.
Flu Activity Not available.
METAR KCID 281552Z 13007KT 8SM -RA BKN110 17/17 A3006 RMK AO2 RAE17B47 PRESFR SLP178 P0001 T01720167

10-Day Weather Forecast

×

Almanac

Astronomy

Aug. 28, 2015 Rise Set
Actual Time
Civil Twilight
Nautical Twilight
Astronomical Twilight
Moon
Length of Visible Light
Length of Day
Tomorrow will be .
, % of the Moon is Illuminated

Today's Extremes

State Highs State Lows

Community

WunderPhotos

Upload Photos

1,850,414 photos uploaded!

WunderBlogs® & News

Nearby

Air Quality

  Air Quality AQ Index Pollutant
Not available.

Snow Depth

Station Depth Elevation

Earthquake Activity

City Distance Mag. Time & Date
Minimum magnitude displayed is 2.5.

Coastal Water Temperatures

Place Temperature

Stations

Nearby Weather Stations

Station Location Temp. Windchill Dew Point Humidity Wind Precip. Elev Updated Type